sensor_id;sensor_type;location;lat;lon;timestamp;P1;durP1;ratioP1;P2;durP2;ratioP2
32333;SDS011;18810;53.040;8.850;2023-11-21T00:02:20;54.33;;;22.17;;
32333;SDS011;18810;53.040;8.850;2023-11-21T00:04:46;52.90;;;23.42;;
32333;SDS011;18810;53.040;8.850;2023-11-21T00:07:12;58.13;;;22.95;;
32333;SDS011;18810;53.040;8.850;2023-11-21T00:09:39;65.72;;;25.98;;
32333;SDS011;18810;53.040;8.850;2023-11-21T00:12:06;55.17;;;23.67;;
32333;SDS011;18810;53.040;8.850;2023-11-21T00:14:35;58.58;;;23.55;;
32333;SDS011;18810;53.040;8.850;2023-11-21T00:17:02;69.72;;;23.90;;
32333;SDS011;18810;53.040;8.850;2023-11-21T00:19:27;66.38;;;25.05;;
32333;SDS011;18810;53.040;8.850;2023-11-21T00:21:53;66.38;;;24.40;;
32333;SDS011;18810;53.040;8.850;2023-11-21T00:24:19;64.35;;;24.27;;
32333;SDS011;18810;53.040;8.850;2023-11-21T00:26:45;63.03;;;25.02;;
32333;SDS011;18810;53.040;8.850;2023-11-21T00:29:13;58.63;;;23.30;;
32333;SDS011;18810;53.040;8.850;2023-11-21T00:31:39;60.90;;;24.00;;
32333;SDS011;18810;53.040;8.850;2023-11-21T00:34:05;66.90;;;26.13;;
32333;SDS011;18810;53.040;8.850;2023-11-21T00:36:33;66.43;;;26.35;;
32333;SDS011;18810;53.040;8.850;2023-11-21T00:38:59;66.10;;;25.23;;
32333;SDS011;18810;53.040;8.850;2023-11-21T00:41:25;59.78;;;24.08;;
32333;SDS011;18810;53.040;8.850;2023-11-21T00:43:54;55.03;;;23.58;;
32333;SDS011;18810;53.040;8.850;2023-11-21T00:46:20;62.35;;;24.50;;
32333;SDS011;18810;53.040;8.850;2023-11-21T00:48:46;57.33;;;24.17;;
32333;SDS011;18810;53.040;8.850;2023-11-21T00:51:12;65.97;;;26.67;;
32333;SDS011;18810;53.040;8.850;2023-11-21T00:53:37;54.28;;;24.88;;
32333;SDS011;18810;53.040;8.850;2023-11-21T00:56:03;61.67;;;26.20;;
32333;SDS011;18810;53.040;8.850;2023-11-21T00:58:29;57.40;;;25.38;;
32333;SDS011;18810;53.040;8.850;2023-11-21T01:00:55;64.00;;;24.83;;
32333;SDS011;18810;53.040;8.850;2023-11-21T01:03:21;55.58;;;24.73;;
32333;SDS011;18810;53.040;8.850;2023-11-21T01:05:47;60.63;;;24.92;;
32333;SDS011;18810;53.040;8.850;2023-11-21T01:08:15;58.92;;;25.45;;
32333;SDS011;18810;53.040;8.850;2023-11-21T01:10:41;62.47;;;25.88;;
32333;SDS011;18810;53.040;8.850;2023-11-21T01:13:06;67.70;;;24.70;;
32333;SDS011;18810;53.040;8.850;2023-11-21T01:15:32;58.03;;;25.95;;
32333;SDS011;18810;53.040;8.850;2023-11-21T01:17:58;72.03;;;26.05;;
32333;SDS011;18810;53.040;8.850;2023-11-21T01:20:24;70.28;;;27.27;;
32333;SDS011;18810;53.040;8.850;2023-11-21T01:22:51;54.28;;;26.88;;
32333;SDS011;18810;53.040;8.850;2023-11-21T01:25:17;59.72;;;24.90;;
32333;SDS011;18810;53.040;8.850;2023-11-21T01:27:42;60.05;;;24.70;;
32333;SDS011;18810;53.040;8.850;2023-11-21T01:30:08;67.82;;;25.55;;
32333;SDS011;18810;53.040;8.850;2023-11-21T01:32:37;65.70;;;26.67;;
32333;SDS011;18810;53.040;8.850;2023-11-21T01:35:04;56.25;;;25.52;;
32333;SDS011;18810;53.040;8.850;2023-11-21T01:37:31;62.78;;;24.65;;
32333;SDS011;18810;53.040;8.850;2023-11-21T01:39:58;70.05;;;24.30;;
32333;SDS011;18810;53.040;8.850;2023-11-21T01:42:24;64.90;;;23.50;;
32333;SDS011;18810;53.040;8.850;2023-11-21T01:44:49;66.82;;;25.75;;
32333;SDS011;18810;53.040;8.850;2023-11-21T01:47:15;58.05;;;24.10;;
32333;SDS011;18810;53.040;8.850;2023-11-21T01:49:45;51.03;;;23.50;;
32333;SDS011;18810;53.040;8.850;2023-11-21T01:52:11;57.42;;;25.23;;
32333;SDS011;18810;53.040;8.850;2023-11-21T01:54:38;69.70;;;25.80;;
32333;SDS011;18810;53.040;8.850;2023-11-21T01:57:04;53.35;;;23.98;;
32333;SDS011;18810;53.040;8.850;2023-11-21T01:59:37;63.38;;;25.02;;
32333;SDS011;18810;53.040;8.850;2023-11-21T02:02:07;74.50;;;26.50;;
32333;SDS011;18810;53.040;8.850;2023-11-21T02:04:33;69.38;;;27.85;;
32333;SDS011;18810;53.040;8.850;2023-11-21T02:06:59;63.47;;;26.58;;
32333;SDS011;18810;53.040;8.850;2023-11-21T02:09:26;73.43;;;27.58;;
32333;SDS011;18810;53.040;8.850;2023-11-21T02:11:53;75.68;;;28.65;;
32333;SDS011;18810;53.040;8.850;2023-11-21T02:14:23;74.47;;;29.42;;
32333;SDS011;18810;53.040;8.850;2023-11-21T02:16:51;69.20;;;29.92;;
32333;SDS011;18810;53.040;8.850;2023-11-21T02:19:19;68.38;;;27.95;;
32333;SDS011;18810;53.040;8.850;2023-11-21T02:21:49;68.53;;;28.40;;
32333;SDS011;18810;53.040;8.850;2023-11-21T02:24:18;69.32;;;27.98;;
32333;SDS011;18810;53.040;8.850;2023-11-21T02:26:48;62.03;;;26.80;;
32333;SDS011;18810;53.040;8.850;2023-11-21T02:29:16;63.85;;;27.08;;
32333;SDS011;18810;53.040;8.850;2023-11-21T02:31:46;52.65;;;25.10;;
32333;SDS011;18810;53.040;8.850;2023-11-21T02:34:16;52.08;;;24.10;;
32333;SDS011;18810;53.040;8.850;2023-11-21T02:36:45;57.15;;;25.75;;
32333;SDS011;18810;53.040;8.850;2023-11-21T02:39:14;57.25;;;24.33;;
32333;SDS011;18810;53.040;8.850;2023-11-21T02:41:41;52.85;;;25.15;;
32333;SDS011;18810;53.040;8.850;2023-11-21T02:44:08;55.20;;;24.90;;
32333;SDS011;18810;53.040;8.850;2023-11-21T02:46:35;49.28;;;23.30;;
32333;SDS011;18810;53.040;8.850;2023-11-21T02:49:01;57.60;;;25.05;;
32333;SDS011;18810;53.040;8.850;2023-11-21T02:51:28;62.78;;;26.08;;
32333;SDS011;18810;53.040;8.850;2023-11-21T02:53:54;62.28;;;26.42;;
32333;SDS011;18810;53.040;8.850;2023-11-21T02:56:23;61.95;;;25.92;;
32333;SDS011;18810;53.040;8.850;2023-11-21T02:58:52;51.50;;;23.50;;
32333;SDS011;18810;53.040;8.850;2023-11-21T03:01:20;50.08;;;23.23;;
32333;SDS011;18810;53.040;8.850;2023-11-21T03:03:46;60.45;;;25.48;;
32333;SDS011;18810;53.040;8.850;2023-11-21T03:06:12;54.83;;;22.90;;
32333;SDS011;18810;53.040;8.850;2023-11-21T03:08:38;48.45;;;21.25;;
32333;SDS011;18810;53.040;8.850;2023-11-21T03:11:04;53.42;;;21.30;;
32333;SDS011;18810;53.040;8.850;2023-11-21T03:13:29;46.95;;;20.25;;
32333;SDS011;18810;53.040;8.850;2023-11-21T03:15:55;45.20;;;21.05;;
32333;SDS011;18810;53.040;8.850;2023-11-21T03:18:21;46.70;;;20.77;;
32333;SDS011;18810;53.040;8.850;2023-11-21T03:20:51;50.58;;;20.83;;
32333;SDS011;18810;53.040;8.850;2023-11-21T03:23:17;51.17;;;21.67;;
32333;SDS011;18810;53.040;8.850;2023-11-21T03:25:43;51.80;;;22.38;;
32333;SDS011;18810;53.040;8.850;2023-11-21T03:28:09;52.63;;;21.13;;
32333;SDS011;18810;53.040;8.850;2023-11-21T03:30:34;55.42;;;22.92;;
32333;SDS011;18810;53.040;8.850;2023-11-21T03:33:00;55.90;;;23.67;;
32333;SDS011;18810;53.040;8.850;2023-11-21T03:35:26;63.75;;;23.05;;
32333;SDS011;18810;53.040;8.850;2023-11-21T03:37:53;59.40;;;22.65;;
32333;SDS011;18810;53.040;8.850;2023-11-21T03:40:19;56.67;;;24.23;;
32333;SDS011;18810;53.040;8.850;2023-11-21T03:42:46;55.95;;;23.85;;
32333;SDS011;18810;53.040;8.850;2023-11-21T03:45:12;64.70;;;25.52;;
32333;SDS011;18810;53.040;8.850;2023-11-21T03:47:39;58.08;;;24.10;;
32333;SDS011;18810;53.040;8.850;2023-11-21T03:50:08;64.78;;;26.25;;
32333;SDS011;18810;53.040;8.850;2023-11-21T03:52:34;72.68;;;27.50;;
32333;SDS011;18810;53.040;8.850;2023-11-21T03:55:00;77.30;;;28.73;;
32333;SDS011;18810;53.040;8.850;2023-11-21T03:57:27;78.63;;;30.30;;
32333;SDS011;18810;53.040;8.850;2023-11-21T03:59:53;77.45;;;29.65;;
32333;SDS011;18810;53.040;8.850;2023-11-21T04:02:19;78.03;;;28.92;;
32333;SDS011;18810;53.040;8.850;2023-11-21T04:04:45;80.88;;;30.52;;
32333;SDS011;18810;53.040;8.850;2023-11-21T04:07:11;80.25;;;30.88;;
32333;SDS011;18810;53.040;8.850;2023-11-21T04:09:38;86.10;;;32.97;;
32333;SDS011;18810;53.040;8.850;2023-11-21T04:12:04;83.55;;;33.45;;
32333;SDS011;18810;53.040;8.850;2023-11-21T04:14:30;78.13;;;33.30;;
32333;SDS011;18810;53.040;8.850;2023-11-21T04:16:56;88.00;;;35.85;;
32333;SDS011;18810;53.040;8.850;2023-11-21T04:19:22;81.60;;;35.05;;
32333;SDS011;18810;53.040;8.850;2023-11-21T04:21:48;78.97;;;34.95;;
32333;SDS011;18810;53.040;8.850;2023-11-21T04:24:14;83.85;;;36.35;;
32333;SDS011;18810;53.040;8.850;2023-11-21T04:26:40;84.63;;;36.38;;
32333;SDS011;18810;53.040;8.850;2023-11-21T04:29:05;89.25;;;36.58;;
32333;SDS011;18810;53.040;8.850;2023-11-21T04:31:31;84.88;;;36.53;;
32333;SDS011;18810;53.040;8.850;2023-11-21T04:33:57;78.82;;;34.40;;
32333;SDS011;18810;53.040;8.850;2023-11-21T04:36:22;65.70;;;29.63;;
32333;SDS011;18810;53.040;8.850;2023-11-21T04:38:48;63.95;;;26.05;;
32333;SDS011;18810;53.040;8.850;2023-11-21T04:41:14;54.55;;;26.25;;
32333;SDS011;18810;53.040;8.850;2023-11-21T04:43:39;60.30;;;26.55;;
32333;SDS011;18810;53.040;8.850;2023-11-21T04:46:05;52.03;;;23.33;;
32333;SDS011;18810;53.040;8.850;2023-11-21T04:48:32;53.55;;;23.02;;
32333;SDS011;18810;53.040;8.850;2023-11-21T04:50:58;48.00;;;21.27;;
32333;SDS011;18810;53.040;8.850;2023-11-21T04:53:23;49.42;;;21.80;;
32333;SDS011;18810;53.040;8.850;2023-11-21T04:55:49;49.67;;;21.75;;
32333;SDS011;18810;53.040;8.850;2023-11-21T04:58:15;48.45;;;21.73;;
32333;SDS011;18810;53.040;8.850;2023-11-21T05:00:41;53.40;;;23.08;;
32333;SDS011;18810;53.040;8.850;2023-11-21T05:03:06;51.00;;;22.65;;
32333;SDS011;18810;53.040;8.850;2023-11-21T05:05:33;46.60;;;22.40;;
32333;SDS011;18810;53.040;8.850;2023-11-21T05:07:59;52.42;;;22.55;;
32333;SDS011;18810;53.040;8.850;2023-11-21T05:10:26;40.30;;;19.70;;
32333;SDS011;18810;53.040;8.850;2023-11-21T05:12:51;45.20;;;20.00;;
32333;SDS011;18810;53.040;8.850;2023-11-21T05:15:17;41.58;;;20.73;;
32333;SDS011;18810;53.040;8.850;2023-11-21T05:17:43;42.60;;;20.65;;
32333;SDS011;18810;53.040;8.850;2023-11-21T05:20:11;44.58;;;20.88;;
32333;SDS011;18810;53.040;8.850;2023-11-21T05:22:38;40.47;;;20.17;;
32333;SDS011;18810;53.040;8.850;2023-11-21T05:25:04;40.30;;;18.40;;
32333;SDS011;18810;53.040;8.850;2023-11-21T05:27:32;43.78;;;20.45;;
32333;SDS011;18810;53.040;8.850;2023-11-21T05:29:58;42.97;;;20.38;;
32333;SDS011;18810;53.040;8.850;2023-11-21T05:32:24;43.40;;;20.77;;
32333;SDS011;18810;53.040;8.850;2023-11-21T05:34:50;43.13;;;20.40;;
32333;SDS011;18810;53.040;8.850;2023-11-21T05:37:16;43.40;;;20.27;;
32333;SDS011;18810;53.040;8.850;2023-11-21T05:39:43;41.60;;;20.90;;
32333;SDS011;18810;53.040;8.850;2023-11-21T05:42:08;43.22;;;21.75;;
32333;SDS011;18810;53.040;8.850;2023-11-21T05:44:36;41.17;;;19.85;;
32333;SDS011;18810;53.040;8.850;2023-11-21T05:47:06;43.95;;;19.63;;
32333;SDS011;18810;53.040;8.850;2023-11-21T05:49:32;39.35;;;20.08;;
32333;SDS011;18810;53.040;8.850;2023-11-21T05:51:59;43.58;;;20.38;;
32333;SDS011;18810;53.040;8.850;2023-11-21T05:54:24;37.30;;;19.65;;
32333;SDS011;18810;53.040;8.850;2023-11-21T05:56:51;39.40;;;19.15;;
32333;SDS011;18810;53.040;8.850;2023-11-21T05:59:17;39.00;;;18.90;;
32333;SDS011;18810;53.040;8.850;2023-11-21T06:01:42;40.03;;;18.83;;
32333;SDS011;18810;53.040;8.850;2023-11-21T06:04:08;35.83;;;18.50;;
32333;SDS011;18810;53.040;8.850;2023-11-21T06:06:34;34.30;;;18.73;;
32333;SDS011;18810;53.040;8.850;2023-11-21T06:09:00;34.42;;;18.20;;
32333;SDS011;18810;53.040;8.850;2023-11-21T06:11:27;35.95;;;18.80;;
32333;SDS011;18810;53.040;8.850;2023-11-21T06:13:53;33.17;;;16.92;;
32333;SDS011;18810;53.040;8.850;2023-11-21T06:16:18;36.50;;;18.77;;
32333;SDS011;18810;53.040;8.850;2023-11-21T06:18:47;37.70;;;18.45;;
32333;SDS011;18810;53.040;8.850;2023-11-21T06:21:13;38.95;;;19.08;;
32333;SDS011;18810;53.040;8.850;2023-11-21T06:23:41;36.78;;;19.40;;
32333;SDS011;18810;53.040;8.850;2023-11-21T06:26:07;33.60;;;16.95;;
32333;SDS011;18810;53.040;8.850;2023-11-21T06:28:34;31.95;;;17.40;;
32333;SDS011;18810;53.040;8.850;2023-11-21T06:31:01;30.08;;;16.83;;
32333;SDS011;18810;53.040;8.850;2023-11-21T06:33:33;33.15;;;17.92;;
32333;SDS011;18810;53.040;8.850;2023-11-21T06:35:59;33.20;;;18.92;;
32333;SDS011;18810;53.040;8.850;2023-11-21T06:38:28;35.03;;;18.00;;
32333;SDS011;18810;53.040;8.850;2023-11-21T06:40:58;34.25;;;18.85;;
32333;SDS011;18810;53.040;8.850;2023-11-21T06:43:23;36.05;;;19.77;;
32333;SDS011;18810;53.040;8.850;2023-11-21T06:45:49;37.90;;;19.10;;
32333;SDS011;18810;53.040;8.850;2023-11-21T06:48:15;37.60;;;20.00;;
32333;SDS011;18810;53.040;8.850;2023-11-21T06:50:41;35.65;;;19.00;;
32333;SDS011;18810;53.040;8.850;2023-11-21T06:53:07;32.95;;;18.13;;
32333;SDS011;18810;53.040;8.850;2023-11-21T06:55:33;33.50;;;17.60;;
32333;SDS011;18810;53.040;8.850;2023-11-21T06:57:59;30.48;;;17.05;;
32333;SDS011;18810;53.040;8.850;2023-11-21T07:00:25;32.60;;;17.63;;
32333;SDS011;18810;53.040;8.850;2023-11-21T07:02:53;33.20;;;17.98;;
32333;SDS011;18810;53.040;8.850;2023-11-21T07:05:20;31.27;;;17.33;;
32333;SDS011;18810;53.040;8.850;2023-11-21T07:07:47;32.50;;;17.90;;
32333;SDS011;18810;53.040;8.850;2023-11-21T07:10:14;37.13;;;18.45;;
32333;SDS011;18810;53.040;8.850;2023-11-21T07:12:40;35.05;;;20.10;;
32333;SDS011;18810;53.040;8.850;2023-11-21T07:15:06;37.67;;;18.45;;
32333;SDS011;18810;53.040;8.850;2023-11-21T07:17:34;32.63;;;18.30;;
32333;SDS011;18810;53.040;8.850;2023-11-21T07:20:01;33.30;;;17.92;;
32333;SDS011;18810;53.040;8.850;2023-11-21T07:22:27;37.20;;;18.88;;
32333;SDS011;18810;53.040;8.850;2023-11-21T07:24:53;39.97;;;20.02;;
32333;SDS011;18810;53.040;8.850;2023-11-21T07:27:19;34.90;;;19.98;;
32333;SDS011;18810;53.040;8.850;2023-11-21T07:29:44;32.47;;;18.45;;
32333;SDS011;18810;53.040;8.850;2023-11-21T07:32:10;35.13;;;19.35;;
32333;SDS011;18810;53.040;8.850;2023-11-21T07:34:38;35.70;;;19.02;;
32333;SDS011;18810;53.040;8.850;2023-11-21T07:37:03;32.97;;;18.02;;
32333;SDS011;18810;53.040;8.850;2023-11-21T07:39:29;37.17;;;19.70;;
32333;SDS011;18810;53.040;8.850;2023-11-21T07:41:55;33.40;;;18.88;;
32333;SDS011;18810;53.040;8.850;2023-11-21T07:44:21;33.65;;;18.05;;
32333;SDS011;18810;53.040;8.850;2023-11-21T07:46:47;33.33;;;19.23;;
32333;SDS011;18810;53.040;8.850;2023-11-21T07:49:14;35.60;;;18.67;;
32333;SDS011;18810;53.040;8.850;2023-11-21T07:51:42;35.63;;;18.98;;
32333;SDS011;18810;53.040;8.850;2023-11-21T07:54:08;35.70;;;20.23;;
32333;SDS011;18810;53.040;8.850;2023-11-21T07:56:35;36.95;;;19.67;;
32333;SDS011;18810;53.040;8.850;2023-11-21T07:59:01;37.35;;;19.35;;
32333;SDS011;18810;53.040;8.850;2023-11-21T08:01:26;36.95;;;19.65;;
32333;SDS011;18810;53.040;8.850;2023-11-21T08:03:53;37.67;;;20.02;;
32333;SDS011;18810;53.040;8.850;2023-11-21T08:06:22;38.22;;;20.55;;
32333;SDS011;18810;53.040;8.850;2023-11-21T08:08:49;36.70;;;19.85;;
32333;SDS011;18810;53.040;8.850;2023-11-21T08:11:14;37.90;;;19.17;;
32333;SDS011;18810;53.040;8.850;2023-11-21T08:13:41;34.33;;;18.70;;
32333;SDS011;18810;53.040;8.850;2023-11-21T08:16:07;36.42;;;19.92;;
32333;SDS011;18810;53.040;8.850;2023-11-21T08:18:33;37.67;;;19.33;;
32333;SDS011;18810;53.040;8.850;2023-11-21T08:20:59;35.38;;;18.77;;
32333;SDS011;18810;53.040;8.850;2023-11-21T08:23:25;32.88;;;18.42;;
32333;SDS011;18810;53.040;8.850;2023-11-21T08:25:52;31.48;;;18.33;;
32333;SDS011;18810;53.040;8.850;2023-11-21T08:28:18;29.67;;;17.77;;
32333;SDS011;18810;53.040;8.850;2023-11-21T08:30:44;29.60;;;17.02;;
32333;SDS011;18810;53.040;8.850;2023-11-21T08:33:10;33.47;;;19.13;;
32333;SDS011;18810;53.040;8.850;2023-11-21T08:35:38;31.92;;;17.83;;
32333;SDS011;18810;53.040;8.850;2023-11-21T08:38:04;29.02;;;17.58;;
32333;SDS011;18810;53.040;8.850;2023-11-21T08:40:30;29.52;;;16.48;;
32333;SDS011;18810;53.040;8.850;2023-11-21T08:42:56;30.08;;;18.35;;
32333;SDS011;18810;53.040;8.850;2023-11-21T08:45:23;29.02;;;16.58;;
32333;SDS011;18810;53.040;8.850;2023-11-21T08:47:50;29.55;;;16.52;;
32333;SDS011;18810;53.040;8.850;2023-11-21T08:50:16;30.90;;;17.05;;
32333;SDS011;18810;53.040;8.850;2023-11-21T08:52:43;28.50;;;14.98;;
32333;SDS011;18810;53.040;8.850;2023-11-21T08:55:11;27.55;;;16.75;;
32333;SDS011;18810;53.040;8.850;2023-11-21T08:57:40;26.67;;;16.10;;
32333;SDS011;18810;53.040;8.850;2023-11-21T09:00:09;25.02;;;15.90;;
32333;SDS011;18810;53.040;8.850;2023-11-21T09:02:42;32.78;;;17.30;;
32333;SDS011;18810;53.040;8.850;2023-11-21T09:05:13;28.70;;;15.93;;
32333;SDS011;18810;53.040;8.850;2023-11-21T09:07:40;27.98;;;16.48;;
32333;SDS011;18810;53.040;8.850;2023-11-21T09:10:06;25.92;;;15.55;;
32333;SDS011;18810;53.040;8.850;2023-11-21T09:12:34;26.52;;;15.30;;
32333;SDS011;18810;53.040;8.850;2023-11-21T09:15:07;23.95;;;14.95;;
32333;SDS011;18810;53.040;8.850;2023-11-21T09:17:34;23.23;;;15.30;;
32333;SDS011;18810;53.040;8.850;2023-11-21T09:20:00;26.25;;;16.13;;
32333;SDS011;18810;53.040;8.850;2023-11-21T09:22:28;22.48;;;14.82;;
32333;SDS011;18810;53.040;8.850;2023-11-21T09:24:54;22.48;;;14.13;;
32333;SDS011;18810;53.040;8.850;2023-11-21T09:27:21;23.38;;;14.20;;
32333;SDS011;18810;53.040;8.850;2023-11-21T09:29:47;28.73;;;16.75;;
32333;SDS011;18810;53.040;8.850;2023-11-21T09:32:14;27.30;;;16.38;;
32333;SDS011;18810;53.040;8.850;2023-11-21T09:34:43;24.83;;;15.35;;
32333;SDS011;18810;53.040;8.850;2023-11-21T09:37:10;26.17;;;16.23;;
32333;SDS011;18810;53.040;8.850;2023-11-21T09:39:35;26.45;;;15.65;;
32333;SDS011;18810;53.040;8.850;2023-11-21T09:42:08;23.33;;;15.30;;
32333;SDS011;18810;53.040;8.850;2023-11-21T09:47:36;23.40;;;14.95;;
32333;SDS011;18810;53.040;8.850;2023-11-21T09:50:04;26.17;;;15.00;;
32333;SDS011;18810;53.040;8.850;2023-11-21T09:52:33;24.85;;;14.52;;
32333;SDS011;18810;53.040;8.850;2023-11-21T09:55:09;26.38;;;15.20;;
32333;SDS011;18810;53.040;8.850;2023-11-21T09:57:38;24.65;;;15.27;;
32333;SDS011;18810;53.040;8.850;2023-11-21T10:00:04;23.13;;;15.00;;
32333;SDS011;18810;53.040;8.850;2023-11-21T10:02:36;23.55;;;15.05;;
32333;SDS011;18810;53.040;8.850;2023-11-21T10:05:05;21.00;;;13.43;;
32333;SDS011;18810;53.040;8.850;2023-11-21T10:07:32;22.25;;;14.40;;
32333;SDS011;18810;53.040;8.850;2023-11-21T10:10:00;22.10;;;13.48;;
32333;SDS011;18810;53.040;8.850;2023-11-21T10:12:27;20.95;;;13.90;;
32333;SDS011;18810;53.040;8.850;2023-11-21T10:14:53;22.50;;;14.05;;
32333;SDS011;18810;53.040;8.850;2023-11-21T10:17:22;22.30;;;14.27;;
32333;SDS011;18810;53.040;8.850;2023-11-21T10:19:51;21.98;;;13.98;;
32333;SDS011;18810;53.040;8.850;2023-11-21T10:22:18;19.20;;;12.82;;
32333;SDS011;18810;53.040;8.850;2023-11-21T10:24:45;22.10;;;13.55;;
32333;SDS011;18810;53.040;8.850;2023-11-21T10:27:11;23.35;;;14.00;;
32333;SDS011;18810;53.040;8.850;2023-11-21T10:29:38;18.63;;;13.15;;
32333;SDS011;18810;53.040;8.850;2023-11-21T10:32:04;21.23;;;14.23;;
32333;SDS011;18810;53.040;8.850;2023-11-21T10:34:30;21.10;;;13.75;;
32333;SDS011;18810;53.040;8.850;2023-11-21T10:36:56;17.48;;;13.02;;
32333;SDS011;18810;53.040;8.850;2023-11-21T10:39:23;23.40;;;13.80;;
32333;SDS011;18810;53.040;8.850;2023-11-21T10:41:52;22.30;;;13.65;;
32333;SDS011;18810;53.040;8.850;2023-11-21T10:44:19;18.15;;;12.25;;
32333;SDS011;18810;53.040;8.850;2023-11-21T10:46:55;17.10;;;12.93;;
32333;SDS011;18810;53.040;8.850;2023-11-21T10:49:25;19.48;;;13.30;;
32333;SDS011;18810;53.040;8.850;2023-11-21T10:51:52;18.77;;;13.10;;
32333;SDS011;18810;53.040;8.850;2023-11-21T10:54:22;17.50;;;12.15;;
32333;SDS011;18810;53.040;8.850;2023-11-21T10:56:49;17.85;;;12.70;;
32333;SDS011;18810;53.040;8.850;2023-11-21T10:59:18;18.95;;;12.88;;
32333;SDS011;18810;53.040;8.850;2023-11-21T11:01:46;19.15;;;12.95;;
32333;SDS011;18810;53.040;8.850;2023-11-21T11:04:11;21.38;;;13.20;;
32333;SDS011;18810;53.040;8.850;2023-11-21T11:06:44;19.40;;;12.68;;
32333;SDS011;18810;53.040;8.850;2023-11-21T11:09:34;20.48;;;12.70;;
32333;SDS011;18810;53.040;8.850;2023-11-21T11:12:03;19.30;;;12.93;;
32333;SDS011;18810;53.040;8.850;2023-11-21T11:14:29;18.58;;;12.48;;
32333;SDS011;18810;53.040;8.850;2023-11-21T11:16:57;20.73;;;13.48;;
32333;SDS011;18810;53.040;8.850;2023-11-21T11:19:25;17.63;;;12.68;;
32333;SDS011;18810;53.040;8.850;2023-11-21T11:25:01;17.50;;;12.18;;
32333;SDS011;18810;53.040;8.850;2023-11-21T11:28:04;14.38;;;11.15;;
32333;SDS011;18810;53.040;8.850;2023-11-21T11:38:23;19.13;;;12.57;;
32333;SDS011;18810;53.040;8.850;2023-11-21T11:40:52;16.40;;;12.13;;
32333;SDS011;18810;53.040;8.850;2023-11-21T11:43:24;19.55;;;12.45;;
32333;SDS011;18810;53.040;8.850;2023-11-21T11:45:51;19.85;;;12.57;;
32333;SDS011;18810;53.040;8.850;2023-11-21T11:48:21;18.38;;;11.63;;
32333;SDS011;18810;53.040;8.850;2023-11-21T11:53:35;18.55;;;11.95;;
32333;SDS011;18810;53.040;8.850;2023-11-21T11:58:56;15.40;;;11.00;;
32333;SDS011;18810;53.040;8.850;2023-11-21T12:01:24;15.80;;;10.90;;
32333;SDS011;18810;53.040;8.850;2023-11-21T12:04:36;13.82;;;11.07;;
32333;SDS011;18810;53.040;8.850;2023-11-21T12:09:12;13.23;;;9.50;;
32333;SDS011;18810;53.040;8.850;2023-11-21T12:11:51;13.35;;;10.25;;
32333;SDS011;18810;53.040;8.850;2023-11-21T12:14:18;14.88;;;10.65;;
32333;SDS011;18810;53.040;8.850;2023-11-21T12:16:44;14.50;;;10.25;;
32333;SDS011;18810;53.040;8.850;2023-11-21T12:19:11;12.68;;;9.63;;
32333;SDS011;18810;53.040;8.850;2023-11-21T12:21:37;14.13;;;9.48;;
32333;SDS011;18810;53.040;8.850;2023-11-21T12:24:04;12.23;;;8.90;;
32333;SDS011;18810;53.040;8.850;2023-11-21T12:26:33;12.50;;;9.30;;
32333;SDS011;18810;53.040;8.850;2023-11-21T12:29:01;16.52;;;9.68;;
32333;SDS011;18810;53.040;8.850;2023-11-21T12:31:29;14.38;;;9.25;;
32333;SDS011;18810;53.040;8.850;2023-11-21T12:33:55;12.02;;;9.32;;
32333;SDS011;18810;53.040;8.850;2023-11-21T12:36:22;13.15;;;9.88;;
32333;SDS011;18810;53.040;8.850;2023-11-21T12:38:48;12.98;;;9.48;;
32333;SDS011;18810;53.040;8.850;2023-11-21T12:41:15;13.60;;;9.38;;
32333;SDS011;18810;53.040;8.850;2023-11-21T12:43:42;14.15;;;9.90;;
32333;SDS011;18810;53.040;8.850;2023-11-21T12:46:08;13.00;;;9.63;;
32333;SDS011;18810;53.040;8.850;2023-11-21T12:48:39;12.55;;;9.80;;
32333;SDS011;18810;53.040;8.850;2023-11-21T12:51:09;11.05;;;8.32;;
32333;SDS011;18810;53.040;8.850;2023-11-21T12:53:37;14.90;;;8.82;;
32333;SDS011;18810;53.040;8.850;2023-11-21T12:56:22;13.80;;;8.95;;
32333;SDS011;18810;53.040;8.850;2023-11-21T12:58:53;11.15;;;8.75;;
32333;SDS011;18810;53.040;8.850;2023-11-21T13:01:24;12.57;;;7.15;;
32333;SDS011;18810;53.040;8.850;2023-11-21T13:03:53;11.65;;;7.28;;
32333;SDS011;18810;53.040;8.850;2023-11-21T13:06:19;10.13;;;7.28;;
32333;SDS011;18810;53.040;8.850;2023-11-21T13:08:46;9.52;;;6.60;;
32333;SDS011;18810;53.040;8.850;2023-11-21T13:11:12;10.10;;;7.07;;
32333;SDS011;18810;53.040;8.850;2023-11-21T13:13:40;8.73;;;6.60;;
32333;SDS011;18810;53.040;8.850;2023-11-21T13:16:08;7.60;;;6.13;;
32333;SDS011;18810;53.040;8.850;2023-11-21T13:18:35;10.23;;;6.72;;
32333;SDS011;18810;53.040;8.850;2023-11-21T13:21:03;10.90;;;7.18;;
32333;SDS011;18810;53.040;8.850;2023-11-21T13:23:38;8.02;;;6.30;;
32333;SDS011;18810;53.040;8.850;2023-11-21T13:26:06;9.15;;;6.30;;
32333;SDS011;18810;53.040;8.850;2023-11-21T13:28:34;9.32;;;6.30;;
32333;SDS011;18810;53.040;8.850;2023-11-21T13:31:01;9.98;;;5.97;;
32333;SDS011;18810;53.040;8.850;2023-11-21T13:33:34;7.97;;;5.53;;
32333;SDS011;18810;53.040;8.850;2023-11-21T13:36:03;8.90;;;6.00;;
32333;SDS011;18810;53.040;8.850;2023-11-21T13:38:34;7.63;;;6.20;;
32333;SDS011;18810;53.040;8.850;2023-11-21T13:41:01;7.18;;;5.47;;
32333;SDS011;18810;53.040;8.850;2023-11-21T13:43:27;8.35;;;6.13;;
32333;SDS011;18810;53.040;8.850;2023-11-21T13:45:54;8.15;;;5.53;;
32333;SDS011;18810;53.040;8.850;2023-11-21T13:48:29;8.85;;;5.88;;
32333;SDS011;18810;53.040;8.850;2023-11-21T13:51:06;11.20;;;5.85;;
32333;SDS011;18810;53.040;8.850;2023-11-21T13:53:45;8.70;;;6.20;;
32333;SDS011;18810;53.040;8.850;2023-11-21T13:56:14;8.65;;;6.13;;
32333;SDS011;18810;53.040;8.850;2023-11-21T13:58:48;5.15;;;4.53;;
32333;SDS011;18810;53.040;8.850;2023-11-21T14:01:19;5.57;;;5.03;;
32333;SDS011;18810;53.040;8.850;2023-11-21T14:04:17;8.13;;;5.20;;
32333;SDS011;18810;53.040;8.850;2023-11-21T14:06:43;7.78;;;5.60;;
32333;SDS011;18810;53.040;8.850;2023-11-21T14:11:48;7.13;;;4.50;;
32333;SDS011;18810;53.040;8.850;2023-11-21T14:14:15;9.38;;;5.47;;
32333;SDS011;18810;53.040;8.850;2023-11-21T14:16:42;8.85;;;6.80;;
32333;SDS011;18810;53.040;8.850;2023-11-21T14:19:07;8.70;;;5.93;;
32333;SDS011;18810;53.040;8.850;2023-11-21T14:21:40;6.45;;;5.78;;
32333;SDS011;18810;53.040;8.850;2023-11-21T14:24:10;8.07;;;5.95;;
32333;SDS011;18810;53.040;8.850;2023-11-21T14:26:39;7.50;;;5.72;;
32333;SDS011;18810;53.040;8.850;2023-11-21T14:29:05;7.80;;;6.35;;
32333;SDS011;18810;53.040;8.850;2023-11-21T14:31:32;7.45;;;5.68;;
32333;SDS011;18810;53.040;8.850;2023-11-21T14:33:58;5.93;;;5.32;;
32333;SDS011;18810;53.040;8.850;2023-11-21T14:36:26;6.45;;;5.20;;
32333;SDS011;18810;53.040;8.850;2023-11-21T14:38:52;6.05;;;5.15;;
32333;SDS011;18810;53.040;8.850;2023-11-21T14:41:18;6.55;;;5.15;;
32333;SDS011;18810;53.040;8.850;2023-11-21T14:43:44;7.68;;;5.22;;
32333;SDS011;18810;53.040;8.850;2023-11-21T14:46:12;9.15;;;5.60;;
32333;SDS011;18810;53.040;8.850;2023-11-21T14:48:42;8.57;;;5.90;;
32333;SDS011;18810;53.040;8.850;2023-11-21T14:51:11;8.50;;;6.30;;
32333;SDS011;18810;53.040;8.850;2023-11-21T14:53:55;8.20;;;6.57;;